Time;durP1;ratioP1;P1;durP2;ratioP2;P2;SDS_P1;SDS_P2;PMS_P1;PMS_P2;Temp;Humidity;BMP_temperature;BMP_pressure;BME280_temperature;BME280_humidity;BME280_pressure;Samples;Min_cycle;Max_cycle;Signal;HPM_P1;HPM_P2
2021/11/04 00:01:34;;;;;;;17.77;10.45;;;;;;;8.10;100.00;99604.00;5069147;28;20044;-62
2021/11/04 00:04:00;;;;;;;20.70;11.23;;;;;;;8.07;100.00;99614.41;5065167;28;20089;-62
2021/11/04 00:06:26;;;;;;;23.65;10.27;;;;;;;8.03;100.00;99599.84;5067002;28;20032;-62
2021/11/04 00:08:52;;;;;;;18.42;9.75;;;;;;;8.06;100.00;99599.75;5069305;28;20032;-64
2021/11/04 00:11:18;;;;;;;21.60;10.18;;;;;;;8.03;100.00;99599.84;5068700;28;20032;-64
2021/11/04 00:13:44;;;;;;;22.42;9.10;;;;;;;8.05;100.00;99595.50;5055964;28;20039;-64
2021/11/04 00:16:11;;;;;;;20.42;10.50;;;;;;;8.08;100.00;99598.00;5056638;28;20048;-63
2021/11/04 00:18:37;;;;;;;20.15;10.05;;;;;;;8.08;100.00;99587.66;5035796;28;20059;-62
2021/11/04 00:21:03;;;;;;;26.35;11.50;;;;;;;8.10;100.00;99578.09;5084184;28;20119;-63
2021/11/04 00:23:29;;;;;;;19.40;10.00;;;;;;;8.15;100.00;99584.00;5052447;28;20033;-64
2021/11/04 00:25:55;;;;;;;24.63;11.25;;;;;;;8.08;100.00;99566.94;5071989;28;20756;-62
2021/11/04 00:28:21;;;;;;;25.35;12.18;;;;;;;8.19;100.00;99587.38;5072354;28;20052;-63
2021/11/04 00:30:47;;;;;;;21.05;11.65;;;;;;;8.23;100.00;99591.56;5071979;28;20052;-63
2021/11/04 00:33:13;;;;;;;27.40;11.65;;;;;;;8.17;100.00;99589.13;5071633;28;20051;-62
2021/11/04 00:35:39;;;;;;;29.25;13.00;;;;;;;8.15;100.00;99583.16;5057934;28;20452;-62
2021/11/04 00:38:08;;;;;;;32.63;13.30;;;;;;;8.13;100.00;99574.56;5023086;28;20507;-62
2021/11/04 00:40:37;;;;;;;28.65;13.73;;;;;;;8.09;100.00;99581.59;5049207;28;20045;-63
2021/11/04 00:43:03;;;;;;;25.13;11.15;;;;;;;8.16;100.00;99587.47;5072299;28;20063;-63
2021/11/04 00:45:29;;;;;;;24.30;12.50;;;;;;;8.14;100.00;99595.25;5053187;28;20048;-64
2021/11/04 00:47:55;;;;;;;29.50;15.20;;;;;;;8.14;100.00;99599.59;5071917;28;20047;-63
2021/11/04 00:50:24;;;;;;;31.23;15.45;;;;;;;8.21;100.00;99595.97;5072267;28;20036;-62
2021/11/04 00:52:49;;;;;;;22.13;12.02;;;;;;;8.23;100.00;99597.59;5058826;28;20036;-62
2021/11/04 00:55:16;;;;;;;28.27;12.88;;;;;;;8.22;100.00;99589.84;5071334;28;20041;-62
2021/11/04 00:57:42;;;;;;;20.48;11.00;;;;;;;8.23;100.00;99582.06;5080164;28;20198;-63
2021/11/04 01:00:12;;;;;;;20.38;10.63;;;;;;;8.23;100.00;99586.38;5070909;28;20132;-64
2021/11/04 01:02:38;;;;;;;17.55;9.40;;;;;;;8.28;100.00;99597.47;5071623;28;20040;-66
2021/11/04 01:05:04;;;;;;;11.75;6.40;;;;;;;8.30;100.00;99593.16;5069875;28;20047;-64
2021/11/04 01:07:30;;;;;;;11.73;6.72;;;;;;;8.21;100.00;99581.28;5060595;28;20041;-63
2021/11/04 01:09:56;;;;;;;11.80;6.38;;;;;;;8.31;100.00;99593.13;5070219;28;20174;-64
2021/11/04 01:12:22;;;;;;;11.18;6.82;;;;;;;8.33;100.00;99591.31;5053776;28;20047;-65
2021/11/04 01:14:48;;;;;;;9.98;6.38;;;;;;;8.35;100.00;99602.50;5060792;28;20039;-62
2021/11/04 01:17:14;;;;;;;11.80;6.95;;;;;;;8.36;100.00;99596.44;5086293;28;20051;-63
2021/11/04 01:19:40;;;;;;;10.82;6.60;;;;;;;8.40;100.00;99608.41;5068545;28;20064;-63
2021/11/04 01:22:05;;;;;;;11.07;6.20;;;;;;;8.35;100.00;99594.72;5070173;28;20190;-64
2021/11/04 01:24:32;;;;;;;12.15;7.10;;;;;;;8.45;100.00;99603.94;5070845;28;20036;-63
2021/11/04 01:26:58;;;;;;;11.43;7.13;;;;;;;8.46;100.00;99607.41;5051620;28;20040;-63
2021/11/04 01:29:23;;;;;;;10.27;6.63;;;;;;;8.48;100.00;99610.78;5070311;28;20051;-63
2021/11/04 01:31:49;;;;;;;9.35;6.22;;;;;;;8.50;100.00;99615.03;5069742;28;20048;-63
2021/11/04 01:34:15;;;;;;;12.45;8.10;;;;;;;8.52;100.00;99607.22;5056931;28;20044;-64
2021/11/04 01:36:41;;;;;;;13.80;7.93;;;;;;;8.58;100.00;99611.41;5065597;28;20131;-63
2021/11/04 01:39:07;;;;;;;14.52;8.32;;;;;;;8.66;100.00;99614.63;5050249;28;20618;-63
2021/11/04 01:41:33;;;;;;;11.43;7.38;;;;;;;8.64;100.00;99619.84;5038217;28;20224;-63
2021/11/04 01:43:59;;;;;;;10.98;7.43;;;;;;;8.58;100.00;99606.22;5069686;28;20083;-62
2021/11/04 01:46:25;;;;;;;12.35;8.27;;;;;;;8.67;100.00;99603.38;5069324;28;20427;-63
2021/11/04 01:48:51;;;;;;;11.27;7.18;;;;;;;8.61;100.00;99600.94;5069905;28;20040;-63
2021/11/04 01:51:18;;;;;;;12.73;7.65;;;;;;;8.72;100.00;99614.44;5061020;28;20047;-62
2021/11/04 01:53:45;;;;;;;12.05;6.80;;;;;;;8.76;100.00;99616.91;5081151;28;20043;-62
2021/11/04 01:56:11;;;;;;;13.05;7.60;;;;;;;8.70;100.00;99608.44;5075631;28;20098;-64
2021/11/04 01:58:37;;;;;;;14.30;7.40;;;;;;;8.84;100.00;99611.53;5072793;28;20048;-63
2021/11/04 02:01:03;;;;;;;11.35;7.15;;;;;;;8.80;100.00;99609.88;5069407;28;20101;-64
2021/11/04 02:03:44;;;;;;;15.82;9.63;;;;;;;8.81;100.00;99615.03;5069503;28;20546;-62
2021/11/04 02:06:34;;;;;;;12.32;7.85;;;;;;;8.83;100.00;99604.63;5052207;28;20032;-63
2021/11/04 02:09:02;;;;;;;;;;;;;;;8.84;100.00;99617.56;5068105;28;20492;-63
2021/11/04 02:11:37;;;;;;;11.87;7.77;;;;;;;8.84;100.00;99612.38;5074172;28;19923;-64
2021/11/04 02:14:14;;;;;;;11.23;7.55;;;;;;;8.86;100.00;99610.56;5073087;28;20817;-64
2021/11/04 02:16:41;;;;;;;12.30;8.13;;;;;;;8.81;100.00;99593.44;5051241;28;20040;-64
2021/11/04 02:19:38;;;;;;;9.63;6.45;;;;;;;8.93;100.00;99617.28;5032068;28;20044;-63
2021/11/04 02:22:05;;;;;;;13.15;8.20;;;;;;;8.97;100.00;99615.44;5069002;28;20090;-62
2021/11/04 02:24:42;;;;;;;12.07;7.30;;;;;;;9.02;100.00;99618.75;5055393;28;20044;-64
2021/11/04 02:27:10;;;;;;;12.00;7.70;;;;;;;9.02;100.00;99616.16;5067310;28;20044;-65
2021/11/04 02:29:39;;;;;;;9.48;6.03;;;;;;;9.02;100.00;99621.34;5060972;28;20180;-63
2021/11/04 02:32:06;;;;;;;13.57;8.93;;;;;;;9.08;100.00;99628.09;5050844;28;20044;-62
2021/11/04 02:34:32;;;;;;;14.00;7.82;;;;;;;9.10;100.00;99627.19;5084969;28;20036;-66
2021/11/04 02:36:59;;;;;;;12.73;8.10;;;;;;;9.16;100.00;99633.94;5063435;28;20041;-62
2021/11/04 02:39:27;;;;;;;12.15;7.65;;;;;;;9.09;100.00;99619.44;5046382;28;20090;-62
2021/11/04 02:41:53;;;;;;;12.38;8.27;;;;;;;9.24;100.00;99632.81;5064888;28;20503;-62
2021/11/04 02:44:19;;;;;;;13.48;8.15;;;;;;;9.26;100.00;99637.94;5057228;28;20036;-62
2021/11/04 02:46:45;;;;;;;12.40;7.47;;;;;;;9.35;100.00;99635.94;5050702;28;20048;-64
2021/11/04 02:49:11;;;;;;;12.95;8.13;;;;;;;9.30;100.00;99629.19;5083942;28;20048;-65
2021/11/04 02:51:38;;;;;;;13.82;8.45;;;;;;;9.42;100.00;99640.94;5068810;28;20040;-64
2021/11/04 02:54:06;;;;;;;12.35;7.28;;;;;;;9.42;100.00;99635.75;5068908;28;20681;-63
2021/11/04 02:56:47;;;;;;;12.93;7.50;;;;;;;9.43;100.00;99630.47;5067131;28;20067;-64
2021/11/04 02:59:19;;;;;;;12.63;8.60;;;;;;;9.50;100.00;99641.53;5068160;28;20127;-59
2021/11/04 03:01:47;;;;;;;9.35;6.88;;;;;;;9.48;100.00;99640.72;5068646;28;20040;-62
2021/11/04 03:04:15;;;;;;;14.02;9.10;;;;;;;9.53;100.00;99641.44;5055956;28;20045;-64
2021/11/04 03:06:41;;;;;;;13.88;8.82;;;;;;;9.48;100.00;99632.94;5052188;28;20094;-63
2021/11/04 03:09:07;;;;;;;17.20;9.30;;;;;;;9.53;100.00;99639.69;5068878;28;20423;-63
2021/11/04 03:11:36;;;;;;;12.90;9.20;;;;;;;9.46;100.00;99634.75;5050456;28;20044;-64
2021/11/04 03:14:04;;;;;;;13.38;8.68;;;;;;;9.36;100.00;99641.97;5067198;28;20040;-63
2021/11/04 03:16:39;;;;;;;13.32;9.23;;;;;;;9.39;100.00;99649.66;5051325;28;20036;-62
2021/11/04 03:19:06;;;;;;;13.27;8.38;;;;;;;9.41;100.00;99650.47;5068913;28;20607;-63
2021/11/04 03:21:32;;;;;;;15.63;9.55;;;;;;;9.35;100.00;99646.31;5055205;28;20500;-64
2021/11/04 03:24:00;;;;;;;12.13;7.28;;;;;;;9.43;100.00;99668.56;5033578;28;20045;-64
2021/11/04 03:26:27;;;;;;;15.85;10.02;;;;;;;9.41;100.00;99675.56;5052215;28;20133;-65
2021/11/04 03:28:53;;;;;;;12.60;8.88;;;;;;;9.42;100.00;99661.69;5052395;28;20040;-63
2021/11/04 03:31:19;;;;;;;12.80;8.00;;;;;;;9.46;100.00;99664.16;5031696;28;20068;-62
2021/11/04 03:33:46;;;;;;;13.00;9.20;;;;;;;9.48;100.00;99672.72;5031947;28;20056;-62
2021/11/04 03:36:13;;;;;;;15.27;9.25;;;;;;;9.44;100.00;99665.94;5050152;28;20131;-63
2021/11/04 03:38:39;;;;;;;12.73;8.23;;;;;;;9.44;100.00;99657.28;5057814;28;20128;-63
2021/11/04 03:41:06;;;;;;;14.38;9.57;;;;;;;9.40;100.00;99655.69;5068876;28;20067;-65
2021/11/04 03:43:33;;;;;;;9.63;4.95;;;;;;;9.42;100.00;99641.75;5055673;28;20040;-62
2021/11/04 03:45:59;;;;;;;13.80;7.18;;;;;;;9.48;100.00;99669.28;5067931;28;20135;-64
2021/11/04 03:48:25;;;;;;;14.20;8.13;;;;;;;9.49;100.00;99668.38;5069068;28;20542;-63
2021/11/04 03:50:52;;;;;;;11.27;7.53;;;;;;;9.32;100.00;99654.16;5083684;28;20051;-62
2021/11/04 03:53:18;;;;;;;12.38;6.35;;;;;;;9.47;100.00;99676.22;5068968;28;20040;-63
2021/11/04 03:55:44;;;;;;;8.27;4.97;;;;;;;9.45;100.00;99678.00;5049623;28;20036;-63
2021/11/04 03:58:11;;;;;;;11.77;7.30;;;;;;;9.44;100.00;99678.91;5048903;28;20083;-62
2021/11/04 04:00:37;;;;;;;11.88;6.97;;;;;;;9.46;100.00;99691.84;5055223;28;20068;-64
2021/11/04 04:03:03;;;;;;;10.93;6.75;;;;;;;9.42;100.00;99685.88;5063857;28;20098;-63
2021/11/04 04:05:31;;;;;;;13.00;7.70;;;;;;;9.41;100.00;99680.75;5069523;28;20105;-64
2021/11/04 04:07:57;;;;;;;13.38;8.10;;;;;;;9.37;100.00;99673.97;5072497;28;20504;-62
2021/11/04 04:10:25;;;;;;;11.77;7.15;;;;;;;9.46;100.00;99697.88;5072151;28;20109;-64
2021/11/04 04:12:51;;;;;;;11.57;6.88;;;;;;;9.49;100.00;99702.13;5072269;28;20040;-64
2021/11/04 04:15:17;;;;;;;10.93;6.68;;;;;;;9.54;100.00;99695.91;5069484;28;20047;-64
2021/11/04 04:17:43;;;;;;;13.15;7.55;;;;;;;9.55;100.00;99705.38;5069675;28;20125;-64
2021/11/04 04:20:09;;;;;;;12.98;7.15;;;;;;;9.59;100.00;99709.59;5072329;28;20531;-64
2021/11/04 04:22:36;;;;;;;13.15;7.35;;;;;;;9.68;100.00;99711.06;5063490;28;20626;-62
2021/11/04 04:25:02;;;;;;;16.02;7.75;;;;;;;9.72;100.00;99713.53;5072356;28;20447;-63
2021/11/04 04:27:29;;;;;;;12.98;6.70;;;;;;;9.69;100.00;99710.16;5055357;28;20049;-64
2021/11/04 04:29:55;;;;;;;13.13;6.50;;;;;;;9.65;100.00;99718.94;5071046;28;20090;-64
2021/11/04 04:32:21;;;;;;;8.48;5.20;;;;;;;9.70;100.00;99717.06;5054081;28;20045;-62
2021/11/04 04:34:46;;;;;;;10.75;7.35;;;;;;;9.74;100.00;99721.25;5064175;28;20038;-63
2021/11/04 04:37:12;;;;;;;11.93;6.93;;;;;;;9.71;100.00;99719.59;5089320;28;20040;-63
2021/11/04 04:39:38;;;;;;;11.77;7.47;;;;;;;9.76;100.00;99725.50;5072127;28;20123;-63
2021/11/04 04:42:05;;;;;;;12.85;7.15;;;;;;;9.80;100.00;99728.84;5072223;28;20071;-63
2021/11/04 04:44:31;;;;;;;11.45;7.15;;;;;;;9.74;100.00;99727.28;5071814;28;20044;-63
2021/11/04 04:46:57;;;;;;;11.07;7.13;;;;;;;9.70;100.00;99733.47;5069928;28;20064;-64
2021/11/04 04:49:24;;;;;;;11.43;7.22;;;;;;;9.76;100.00;99742.84;5067484;28;20062;-64
2021/11/04 04:51:50;;;;;;;11.95;7.28;;;;;;;9.79;100.00;99756.56;5040133;28;20070;-62
2021/11/04 04:54:17;;;;;;;6.15;3.85;;;;;;;9.75;100.00;99746.31;5068557;28;20465;-63
2021/11/04 04:56:42;;;;;;;9.00;6.38;;;;;;;9.71;99.64;99750.75;5070812;28;20059;-63
2021/11/04 04:59:09;;;;;;;10.32;6.10;;;;;;;9.71;98.24;99749.91;5071087;28;20430;-63
2021/11/04 05:01:35;;;;;;;8.90;4.40;;;;;;;9.72;96.30;99767.19;5061879;28;20045;-62
2021/11/04 05:04:01;;;;;;;8.95;5.57;;;;;;;9.71;96.12;99757.69;5080840;28;20086;-61
2021/11/04 05:06:27;;;;;;;11.65;6.00;;;;;;;9.70;96.73;99768.97;5064133;28;20423;-63
2021/11/04 05:08:52;;;;;;;10.95;5.50;;;;;;;9.68;96.87;99766.41;5070849;28;20090;-62
2021/11/04 05:11:18;;;;;;;7.50;4.65;;;;;;;9.67;96.52;99767.34;5073649;28;20531;-63
2021/11/04 05:13:44;;;;;;;12.93;6.70;;;;;;;9.66;97.39;99762.19;5050252;28;20036;-61
2021/11/04 05:16:10;;;;;;;7.07;4.47;;;;;;;9.68;96.87;99763.81;5071000;28;20858;-64
2021/11/04 05:18:36;;;;;;;15.35;7.13;;;;;;;9.71;97.61;99778.47;5064446;28;20056;-62
2021/11/04 05:21:01;;;;;;;11.27;7.32;;;;;;;9.61;97.04;99756.28;5053768;28;20040;-62
2021/11/04 05:23:27;;;;;;;14.13;7.28;;;;;;;9.74;96.76;99774.03;5071382;28;20530;-62
2021/11/04 05:25:53;;;;;;;12.02;7.53;;;;;;;9.75;96.76;99773.13;5070567;28;20040;-63
2021/11/04 05:28:19;;;;;;;13.50;6.40;;;;;;;9.69;96.53;99769.84;5053852;28;20572;-60
2021/11/04 05:30:45;;;;;;;10.43;6.78;;;;;;;9.73;96.39;99781.88;5053358;28;20036;-63
2021/11/04 05:33:10;;;;;;;9.45;5.32;;;;;;;9.72;95.59;99770.63;5033054;28;20064;-62
2021/11/04 05:35:37;;;;;;;12.48;7.13;;;;;;;9.71;95.27;99773.28;5067244;28;20029;-61
2021/11/04 05:38:02;;;;;;;15.32;7.53;;;;;;;9.76;95.13;99780.03;5052268;28;20451;-62
2021/11/04 05:40:28;;;;;;;14.23;8.25;;;;;;;9.77;95.55;99784.34;5069818;28;20039;-61
2021/11/04 05:42:54;;;;;;;15.32;7.65;;;;;;;9.82;95.13;99789.38;5070001;28;20036;-63
2021/11/04 05:45:20;;;;;;;14.88;8.30;;;;;;;9.88;95.53;99785.75;5051325;28;20534;-42
2021/11/04 05:47:46;;;;;;;15.60;7.53;;;;;;;9.89;94.39;99790.06;5068288;28;20068;-51
2021/11/04 05:50:12;;;;;;;14.13;7.82;;;;;;;9.92;95.39;99789.97;5061663;28;20040;-48
2021/11/04 05:52:38;;;;;;;12.85;7.63;;;;;;;9.96;94.09;99784.63;5055932;28;20040;-46
2021/11/04 05:55:04;;;;;;;13.07;8.30;;;;;;;9.99;93.75;99794.94;5068907;28;20217;-46
2021/11/04 05:57:30;;;;;;;13.77;7.63;;;;;;;9.99;92.84;99796.69;5071043;28;20207;-44
2021/11/04 05:59:56;;;;;;;15.43;6.22;;;;;;;9.96;91.81;99791.56;5051855;28;20555;-48
2021/11/04 06:02:22;;;;;;;12.57;7.75;;;;;;;9.86;92.12;99795.34;5069521;28;20033;-48
2021/11/04 06:04:50;;;;;;;14.02;7.35;;;;;;;9.92;91.39;99808.13;5061614;28;20033;-51
2021/11/04 06:07:16;;;;;;;12.38;7.55;;;;;;;9.87;91.04;99791.84;5049960;28;20052;-54
2021/11/04 06:09:42;;;;;;;14.52;7.97;;;;;;;9.95;90.93;99814.09;5068075;28;20507;-53
2021/11/04 06:12:09;;;;;;;13.07;7.53;;;;;;;9.96;90.46;99814.94;5083159;28;20068;-51
2021/11/04 06:14:35;;;;;;;13.38;7.10;;;;;;;9.97;90.10;99814.91;5034019;28;20085;-52
2021/11/04 06:17:01;;;;;;;16.42;8.43;;;;;;;9.96;89.88;99818.38;5046356;28;20128;-49
2021/11/04 06:19:27;;;;;;;14.05;7.90;;;;;;;9.94;90.25;99821.94;5068417;28;20048;-50
2021/11/04 06:21:54;;;;;;;18.02;8.38;;;;;;;9.86;89.95;99821.31;5066119;28;20052;-51
2021/11/04 06:24:19;;;;;;;15.60;8.18;;;;;;;9.82;90.73;99822.28;5064433;28;20082;-50
2021/11/04 06:26:45;;;;;;;15.68;6.82;;;;;;;9.77;90.55;99835.41;5067464;28;20040;-49
2021/11/04 06:29:11;;;;;;;13.43;8.20;;;;;;;9.78;91.07;99834.53;5067578;28;20048;-53
2021/11/04 06:31:37;;;;;;;7.60;4.57;;;;;;;9.75;90.42;99837.19;5051243;28;20052;-49
2021/11/04 06:34:03;;;;;;;14.93;9.05;;;;;;;9.79;90.73;99831.84;5068285;28;20039;-46
2021/11/04 06:36:28;;;;;;;11.50;7.15;;;;;;;9.88;90.38;99843.75;5051111;28;20048;-47
2021/11/04 06:38:54;;;;;;;15.45;8.48;;;;;;;9.86;89.83;99840.34;5059324;28;20534;-52
2021/11/04 06:41:20;;;;;;;16.08;7.75;;;;;;;9.91;90.00;99846.25;5031914;28;20045;-48
2021/11/04 06:43:46;;;;;;;13.82;8.88;;;;;;;9.91;89.71;99863.56;5057989;28;20040;-50
2021/11/04 06:46:15;;;;;;;15.07;7.97;;;;;;;9.81;89.26;99839.63;5051289;28;20097;-50
2021/11/04 06:48:44;;;;;;;15.65;9.40;;;;;;;9.74;89.62;99823.34;5052052;28;20777;-48
2021/11/04 06:51:12;;;;;;;16.30;7.82;;;;;;;9.81;89.89;99852.59;5051852;28;20048;-51
2021/11/04 06:53:44;;;;;;;10.27;6.35;;;;;;;9.72;89.89;99847.66;5057422;28;20181;-47
2021/11/04 06:56:10;;;;;;;14.98;8.13;;;;;;;9.73;89.79;99847.59;5065493;28;20064;-52
2021/11/04 06:58:37;;;;;;;13.32;8.23;;;;;;;9.82;89.93;99850.84;5069435;28;20444;-54
2021/11/04 07:01:09;;;;;;;12.13;6.85;;;;;;;9.79;90.25;99860.41;5069667;28;20044;-51
2021/11/04 07:03:48;;;;;;;12.95;8.60;;;;;;;9.71;90.15;99848.56;5069174;28;20040;-54
2021/11/04 07:06:22;;;;;;;14.95;8.70;;;;;;;9.81;90.35;99852.59;5034174;28;20139;-50
2021/11/04 07:09:06;;;;;;;13.98;8.68;;;;;;;9.89;89.29;99862.78;5052176;28;20048;-50
2021/11/04 07:11:32;;;;;;;13.02;6.50;;;;;;;9.92;88.39;99880.84;5069426;28;20039;-49
2021/11/04 07:13:58;;;;;;;14.32;8.82;;;;;;;9.77;88.35;99845.78;5069576;28;20067;-51
2021/11/04 07:16:26;;;;;;;17.38;8.48;;;;;;;9.93;88.16;99878.22;5069106;28;20566;-53
2021/11/04 07:18:55;;;;;;;12.38;7.20;;;;;;;9.91;88.32;99887.78;5068004;28;20527;-50
2021/11/04 07:21:44;;;;;;;15.95;8.88;;;;;;;9.96;87.71;99885.06;5068538;28;20032;-49
2021/11/04 07:24:14;;;;;;;14.25;8.70;;;;;;;9.95;87.70;99894.59;5059776;28;20190;-52
2021/11/04 07:26:41;;;;;;;14.60;9.15;;;;;;;9.99;87.48;99890.19;5049214;28;20036;-52
2021/11/04 07:29:10;;;;;;;14.27;8.27;;;;;;;9.98;87.31;99891.06;5068486;28;20051;-49
2021/11/04 07:31:40;;;;;;;7.60;5.05;;;;;;;10.05;85.36;99896.03;5067245;28;20101;-51
2021/11/04 07:34:08;;;;;;;12.43;7.03;;;;;;;10.02;85.96;99892.69;5055847;28;20137;-52
2021/11/04 07:36:36;;;;;;;16.42;8.88;;;;;;;10.10;86.01;99899.34;5070912;28;20044;-51
2021/11/04 07:39:04;;;;;;;11.90;7.57;;;;;;;10.04;85.89;99904.75;5046190;28;20036;-52
2021/11/04 07:41:31;;;;;;;14.05;7.15;;;;;;;9.93;85.85;99908.53;5072201;28;20519;-51
2021/11/04 07:43:58;;;;;;;14.00;8.70;;;;;;;9.82;87.25;99900.19;5086933;28;20036;-51
2021/11/04 07:46:24;;;;;;;18.23;9.00;;;;;;;9.86;87.68;99907.84;5071001;28;20063;-50
2021/11/04 07:48:50;;;;;;;15.75;8.25;;;;;;;9.89;87.53;99905.16;5035664;28;20144;-50
2021/11/04 07:51:16;;;;;;;18.38;9.40;;;;;;;9.96;87.61;99908.44;5079439;28;20119;-47
2021/11/04 07:53:42;;;;;;;15.00;8.02;;;;;;;10.04;86.45;99914.28;5064941;28;20032;-55
2021/11/04 07:56:09;;;;;;;16.67;9.27;;;;;;;10.04;86.86;99922.06;5070049;28;20560;-48
2021/11/04 07:58:36;;;;;;;16.20;8.52;;;;;;;10.02;86.54;99932.50;5056050;28;20789;-55
2021/11/04 08:01:02;;;;;;;15.75;9.55;;;;;;;10.04;86.19;99924.69;5068780;28;20730;-53
2021/11/04 08:03:28;;;;;;;13.00;7.18;;;;;;;10.03;86.12;99947.19;5076672;28;20040;-51
2021/11/04 08:05:54;;;;;;;10.95;6.13;;;;;;;9.93;84.73;99939.69;5065534;28;20099;-49
2021/11/04 08:08:20;;;;;;;15.60;8.15;;;;;;;9.95;84.88;99938.75;5037013;28;20124;-49
2021/11/04 08:10:46;;;;;;;8.40;5.90;;;;;;;9.89;83.85;99925.09;5067748;28;20131;-53
2021/11/04 08:13:15;;;;;;;14.57;7.03;;;;;;;10.06;83.17;99946.25;5067173;28;20487;-50
2021/11/04 08:15:41;;;;;;;10.45;6.80;;;;;;;10.23;82.19;99935.41;5069234;28;20422;-48
2021/11/04 08:18:08;;;;;;;15.60;7.88;;;;;;;10.17;81.81;99933.84;5072443;28;20480;-50
2021/11/04 08:20:34;;;;;;;11.50;6.70;;;;;;;10.30;80.61;99934.34;5054301;28;20483;-52
2021/11/04 08:23:02;;;;;;;12.48;6.75;;;;;;;11.13;75.99;99946.50;5059592;28;20516;-48
2021/11/04 08:25:28;;;;;;;9.25;5.47;;;;;;;11.10;74.92;99937.03;5062700;28;20037;-48
2021/11/04 08:27:54;;;;;;;11.25;7.03;;;;;;;11.20;74.71;99951.44;5063571;28;20045;-48
2021/11/04 08:30:21;;;;;;;12.35;7.18;;;;;;;11.10;74.72;99943.97;5031201;28;20040;-47
2021/11/04 08:32:48;;;;;;;11.20;6.60;;;;;;;10.84;75.71;99961.28;5050046;28;20041;-50
2021/11/04 08:35:14;;;;;;;13.18;7.60;;;;;;;10.71;76.45;99940.91;5046097;28;20045;-50
2021/11/04 08:37:40;;;;;;;12.95;6.88;;;;;;;10.61;77.26;99958.53;5063790;28;20106;-47
2021/11/04 08:40:07;;;;;;;10.18;6.30;;;;;;;10.46;77.71;99959.84;5059848;28;20099;-49
2021/11/04 08:42:34;;;;;;;12.25;6.70;;;;;;;10.36;77.99;99948.03;5050059;28;20085;-52
2021/11/04 08:45:00;;;;;;;9.40;5.63;;;;;;;10.28;78.20;99983.75;5036123;28;20036;-52
2021/11/04 08:47:27;;;;;;;11.23;7.22;;;;;;;10.22;78.74;99964.88;5075187;28;20057;-59
2021/11/04 08:49:54;;;;;;;12.82;6.65;;;;;;;10.16;79.59;99971.94;5069957;28;20819;-52
2021/11/04 08:52:23;;;;;;;17.60;7.55;;;;;;;10.12;80.04;99975.50;5060203;28;20033;-53
2021/11/04 08:54:50;;;;;;;;;;;;;;;10.04;80.27;99979.22;5037719;28;20856;-53
2021/11/04 08:57:16;;;;;;;13.43;6.93;;;;;;;9.89;80.39;99964.88;5074877;28;19970;-54
2021/11/04 08:59:43;;;;;;;14.70;7.38;;;;;;;9.96;79.66;99973.38;5070933;28;20039;-61
2021/11/04 09:02:13;;;;;;;11.23;6.95;;;;;;;9.95;79.67;99982.91;5029612;28;20428;-50
2021/11/04 09:04:42;;;;;;;11.88;5.88;;;;;;;9.97;79.97;99981.13;5071031;28;20499;-49
2021/11/04 09:07:38;;;;;;;12.10;7.25;;;;;;;9.98;79.79;99982.84;5049572;28;20040;-48
2021/11/04 09:10:06;;;;;;;11.15;6.55;;;;;;;9.94;80.18;99986.41;5058779;28;20496;-50
2021/11/04 09:12:32;;;;;;;12.68;7.15;;;;;;;9.95;79.99;100001.09;5061243;28;20040;-49
2021/11/04 09:14:57;;;;;;;8.50;5.45;;;;;;;9.91;79.66;100006.41;5045313;28;20032;-49
2021/11/04 09:17:23;;;;;;;10.45;5.57;;;;;;;9.87;79.67;100018.63;5062408;28;20106;-49
2021/11/04 09:19:51;;;;;;;11.50;6.20;;;;;;;9.73;80.09;99999.97;5076252;28;20522;-48
2021/11/04 09:22:19;;;;;;;8.75;4.60;;;;;;;9.84;80.17;100016.09;5062997;28;20041;-51
2021/11/04 09:24:46;;;;;;;9.68;5.78;;;;;;;9.92;79.85;100015.91;5061113;28;20070;-48
2021/11/04 09:27:12;;;;;;;18.92;7.22;;;;;;;10.24;79.06;100033.25;5077956;28;20583;-50
2021/11/04 09:29:39;;;;;;;10.00;6.38;;;;;;;10.61;76.90;100024.38;5042305;28;20032;-52
2021/11/04 09:32:06;;;;;;;14.02;6.80;;;;;;;10.78;75.17;100033.44;5067252;28;20044;-47
2021/11/04 09:34:34;;;;;;;10.50;5.85;;;;;;;10.82;74.77;100035.91;5057230;28;20047;-48
2021/11/04 09:37:00;;;;;;;9.30;5.75;;;;;;;10.83;74.55;100040.22;5052922;28;20044;-47
2021/11/04 09:39:25;;;;;;;9.40;5.18;;;;;;;10.75;74.13;100030.91;5046245;28;20036;-47
2021/11/04 09:41:52;;;;;;;7.57;4.85;;;;;;;10.74;73.46;100037.88;5078569;28;20052;-51
2021/11/04 09:44:20;;;;;;;5.78;3.88;;;;;;;10.76;73.36;100038.69;5042856;28;20042;-49
2021/11/04 09:46:45;;;;;;;9.23;4.85;;;;;;;10.73;73.73;100035.34;5073460;28;20051;-50
2021/11/04 09:49:11;;;;;;;7.40;4.65;;;;;;;11.02;72.16;100043.97;5060532;28;20048;-50
2021/11/04 09:51:37;;;;;;;8.70;4.80;;;;;;;11.10;71.51;100038.50;5064269;28;20130;-49
2021/11/04 09:54:03;;;;;;;6.72;4.05;;;;;;;11.05;70.93;100061.22;5058285;28;20044;-50
2021/11/04 09:56:30;;;;;;;8.30;4.57;;;;;;;10.96;71.28;100051.09;5078550;28;20052;-51
2021/11/04 09:58:57;;;;;;;4.47;3.25;;;;;;;10.82;71.16;100046.31;5080596;28;20071;-47
2021/11/04 10:01:25;;;;;;;8.73;4.57;;;;;;;10.73;72.03;100053.53;5067554;28;20044;-49
2021/11/04 10:03:53;;;;;;;6.18;3.83;;;;;;;10.57;72.14;100050.53;5032704;28;20040;-53
2021/11/04 10:06:23;;;;;;;5.78;3.47;;;;;;;10.41;72.45;100044.91;5041509;28;20138;-49
2021/11/04 10:08:51;;;;;;;6.10;4.10;;;;;;;10.55;72.84;100062.72;5065866;28;20135;-52
2021/11/04 10:11:17;;;;;;;6.47;4.25;;;;;;;10.61;73.00;100072.94;5088995;28;20094;-53
2021/11/04 10:13:45;;;;;;;6.70;3.60;;;;;;;10.59;72.74;100066.91;5075670;28;20415;-50
2021/11/04 10:16:12;;;;;;;6.50;4.05;;;;;;;10.70;72.42;100067.47;5075316;28;20047;-50
2021/11/04 10:18:43;;;;;;;7.07;4.10;;;;;;;10.87;71.92;100072.19;5053500;28;20047;-47
2021/11/04 10:21:09;;;;;;;5.82;4.00;;;;;;;11.02;71.24;100040.50;5049637;28;20040;-47
2021/11/04 10:23:45;;;;;;;5.93;3.17;;;;;;;11.44;68.57;100067.81;5069987;28;20036;-48
2021/11/04 10:26:19;;;;;;;5.85;3.75;;;;;;;11.32;69.39;100068.19;5059794;28;20041;-47
2021/11/04 10:28:48;;;;;;;7.68;4.50;;;;;;;11.23;69.66;100065.88;5049089;28;20041;-49
2021/11/04 10:31:15;;;;;;;;;;;;;;;11.08;70.48;100057.69;5038191;28;20063;-46
2021/11/04 10:33:45;;;;;;;8.57;3.83;;;;;;;10.99;70.67;100064.03;5064942;28;19950;-48
2021/11/04 10:36:25;;;;;;;8.25;3.92;;;;;;;11.00;70.91;100066.56;5069975;28;20041;-47
2021/11/04 10:38:52;;;;;;;;;;;;;;;11.06;70.80;100070.72;5058960;28;20044;-49
2021/11/04 10:41:24;;;;;;;6.22;4.10;;;;;;;11.06;70.56;100068.13;5054951;28;19986;-47
2021/11/04 10:43:58;;;;;;;4.60;3.30;;;;;;;11.31;69.79;100069.09;5052946;28;20094;-47
2021/11/04 10:46:25;;;;;;;5.90;3.70;;;;;;;11.83;67.45;100070.03;5070137;28;20044;-53
2021/11/04 10:48:59;;;;;;;5.32;2.75;;;;;;;11.73;67.53;100085.13;5070227;28;20032;-48
2021/11/04 10:51:26;;;;;;;4.85;2.92;;;;;;;11.75;67.43;100087.69;5070139;28;20044;-51
2021/11/04 10:54:02;;;;;;;6.68;4.05;;;;;;;12.57;65.16;100085.69;5065475;28;20040;-47
2021/11/04 10:56:29;;;;;;;7.05;4.20;;;;;;;12.60;64.38;100088.22;5048238;28;20076;-49
2021/11/04 10:58:59;;;;;;;6.25;3.65;;;;;;;13.64;61.35;100089.47;5058925;28;20040;-49
2021/11/04 11:01:33;;;;;;;6.40;4.07;;;;;;;14.93;59.30;100089.13;5060580;28;20075;-53
2021/11/04 11:04:04;;;;;;;7.05;3.50;;;;;;;15.69;55.67;100096.91;5042721;28;20147;-48
2021/11/04 11:06:32;;;;;;;4.38;3.28;;;;;;;16.17;54.33;100096.25;5060695;28;20045;-51
2021/11/04 11:09:05;;;;;;;6.10;4.13;;;;;;;15.26;54.61;100104.16;5058394;28;20071;-43
2021/11/04 11:11:35;;;;;;;6.95;3.80;;;;;;;14.49;56.55;100098.97;5059456;28;20047;-44
2021/11/04 11:14:04;;;;;;;6.63;3.90;;;;;;;14.01;58.08;100107.97;5076321;28;20049;-43
2021/11/04 11:16:31;;;;;;;6.90;4.03;;;;;;;13.98;58.44;100108.06;5059357;28;20086;-45
2021/11/04 11:18:58;;;;;;;5.68;3.50;;;;;;;13.94;58.26;100109.97;5042415;28;20041;-50
2021/11/04 11:21:27;;;;;;;8.13;4.07;;;;;;;13.95;58.52;100118.66;5057072;28;20083;-45
2021/11/04 11:23:53;;;;;;;6.82;3.58;;;;;;;13.95;57.84;100129.13;5060698;28;20127;-45
2021/11/04 11:26:19;;;;;;;6.18;3.17;;;;;;;13.77;57.78;100125.47;5084497;28;20234;-47
2021/11/04 11:28:45;;;;;;;4.70;3.13;;;;;;;13.30;58.73;100129.97;5051813;28;20044;-46
2021/11/04 11:31:18;;;;;;;5.07;2.92;;;;;;;12.66;60.41;100142.78;5051037;28;20050;-49